sensor_id;sensor_type;location;lat;lon;timestamp;temperature;humidity
70593;DHT22;58294;42.988;20.338;2023-05-07T00:00:37;281.60;1638.40
70593;DHT22;58294;42.988;20.338;2023-05-07T00:03:03;281.60;1638.40
70593;DHT22;58294;42.988;20.338;2023-05-07T00:05:29;281.60;1638.40
70593;DHT22;58294;42.988;20.338;2023-05-07T00:07:55;256.90;1587.20
70593;DHT22;58294;42.988;20.338;2023-05-07T00:10:21;256.80;1587.20
70593;DHT22;58294;42.988;20.338;2023-05-07T00:12:46;256.80;1587.20
70593;DHT22;58294;42.988;20.338;2023-05-07T00:15:12;256.70;1587.20
70593;DHT22;58294;42.988;20.338;2023-05-07T00:17:38;256.60;1612.80
70593;DHT22;58294;42.988;20.338;2023-05-07T00:20:05;256.60;1612.80
70593;DHT22;58294;42.988;20.338;2023-05-07T00:22:31;256.60;1612.80
70593;DHT22;58294;42.988;20.338;2023-05-07T00:24:58;256.50;1664.00
70593;DHT22;58294;42.988;20.338;2023-05-07T00:27:24;256.50;1638.40
70593;DHT22;58294;42.988;20.338;2023-05-07T00:29:50;256.50;1664.00
70593;DHT22;58294;42.988;20.338;2023-05-07T00:32:16;256.50;1664.00
70593;DHT22;58294;42.988;20.338;2023-05-07T00:34:43;256.60;1689.60
70593;DHT22;58294;42.988;20.338;2023-05-07T00:37:09;256.60;1664.00
70593;DHT22;58294;42.988;20.338;2023-05-07T00:39:35;256.60;1689.60
70593;DHT22;58294;42.988;20.338;2023-05-07T00:42:01;256.60;1664.00
70593;DHT22;58294;42.988;20.338;2023-05-07T00:44:28;256.60;1664.00
70593;DHT22;58294;42.988;20.338;2023-05-07T00:46:57;256.60;1664.00
70593;DHT22;58294;42.988;20.338;2023-05-07T00:49:28;256.60;1638.40
70593;DHT22;58294;42.988;20.338;2023-05-07T00:51:58;256.60;1638.40
70593;DHT22;58294;42.988;20.338;2023-05-07T00:54:26;256.50;1638.40
70593;DHT22;58294;42.988;20.338;2023-05-07T00:56:52;256.40;1664.00
70593;DHT22;58294;42.988;20.338;2023-05-07T00:59:18;256.40;1664.00
70593;DHT22;58294;42.988;20.338;2023-05-07T01:01:44;256.30;2048.00
70593;DHT22;58294;42.988;20.338;2023-05-07T01:04:10;256.30;1689.60
70593;DHT22;58294;42.988;20.338;2023-05-07T01:06:36;256.30;1689.60
70593;DHT22;58294;42.988;20.338;2023-05-07T01:09:02;256.30;1689.60
70593;DHT22;58294;42.988;20.338;2023-05-07T01:11:30;256.30;1689.60
70593;DHT22;58294;42.988;20.338;2023-05-07T01:13:57;256.30;1664.00
70593;DHT22;58294;42.988;20.338;2023-05-07T01:16:24;256.30;1689.60
70593;DHT22;58294;42.988;20.338;2023-05-07T01:18:50;256.20;1740.80
70593;DHT22;58294;42.988;20.338;2023-05-07T01:21:17;256.30;1715.20
70593;DHT22;58294;42.988;20.338;2023-05-07T01:23:44;256.10;1664.00
70593;DHT22;58294;42.988;20.338;2023-05-07T01:26:10;256.10;1689.60
70593;DHT22;58294;42.988;20.338;2023-05-07T01:28:36;256.00;1689.60
70593;DHT22;58294;42.988;20.338;2023-05-07T01:31:03;256.00;1715.20
70593;DHT22;58294;42.988;20.338;2023-05-07T01:33:32;231.30;1715.20
70593;DHT22;58294;42.988;20.338;2023-05-07T01:35:59;231.30;1715.20
70593;DHT22;58294;42.988;20.338;2023-05-07T01:38:30;231.30;1715.20
70593;DHT22;58294;42.988;20.338;2023-05-07T01:40:56;231.30;1715.20
70593;DHT22;58294;42.988;20.338;2023-05-07T01:43:23;231.20;1689.60
70593;DHT22;58294;42.988;20.338;2023-05-07T01:45:49;231.20;1715.20
70593;DHT22;58294;42.988;20.338;2023-05-07T01:48:15;231.20;1715.20
70593;DHT22;58294;42.988;20.338;2023-05-07T01:50:42;231.20;1715.20
70593;DHT22;58294;42.988;20.338;2023-05-07T01:53:08;231.10;1740.80
70593;DHT22;58294;42.988;20.338;2023-05-07T01:55:34;231.10;1715.20
70593;DHT22;58294;42.988;20.338;2023-05-07T01:58:02;231.10;1740.80
70593;DHT22;58294;42.988;20.338;2023-05-07T02:00:28;231.00;1715.20
70593;DHT22;58294;42.988;20.338;2023-05-07T02:02:54;231.00;1740.80
70593;DHT22;58294;42.988;20.338;2023-05-07T02:05:20;230.90;1715.20
70593;DHT22;58294;42.988;20.338;2023-05-07T02:07:46;230.90;1715.20
70593;DHT22;58294;42.988;20.338;2023-05-07T02:10:12;230.90;1715.20
70593;DHT22;58294;42.988;20.338;2023-05-07T02:12:38;230.90;1740.80
70593;DHT22;58294;42.988;20.338;2023-05-07T02:15:04;230.80;1740.80
70593;DHT22;58294;42.988;20.338;2023-05-07T02:17:31;230.80;1766.40
70593;DHT22;58294;42.988;20.338;2023-05-07T02:19:58;230.70;1766.40
70593;DHT22;58294;42.988;20.338;2023-05-07T02:22:25;230.70;1740.80
70593;DHT22;58294;42.988;20.338;2023-05-07T02:24:51;230.70;1766.40
70593;DHT22;58294;42.988;20.338;2023-05-07T02:27:17;230.70;1740.80
70593;DHT22;58294;42.988;20.338;2023-05-07T02:29:42;230.70;1792.00
70593;DHT22;58294;42.988;20.338;2023-05-07T02:32:08;230.70;1817.60
70593;DHT22;58294;42.988;20.338;2023-05-07T02:34:34;230.60;1817.60
70593;DHT22;58294;42.988;20.338;2023-05-07T02:37:00;230.60;1792.00
70593;DHT22;58294;42.988;20.338;2023-05-07T02:39:26;230.60;1792.00
70593;DHT22;58294;42.988;20.338;2023-05-07T02:41:51;230.60;1792.00
70593;DHT22;58294;42.988;20.338;2023-05-07T02:44:17;230.60;1766.40
70593;DHT22;58294;42.988;20.338;2023-05-07T02:46:43;230.60;1766.40
70593;DHT22;58294;42.988;20.338;2023-05-07T02:49:08;230.50;1792.00
70593;DHT22;58294;42.988;20.338;2023-05-07T02:51:34;230.40;1792.00
70593;DHT22;58294;42.988;20.338;2023-05-07T02:54:00;230.40;1792.00
70593;DHT22;58294;42.988;20.338;2023-05-07T02:56:26;230.40;1792.00
70593;DHT22;58294;42.988;20.338;2023-05-07T02:58:52;230.40;1817.60
70593;DHT22;58294;42.988;20.338;2023-05-07T03:01:18;230.40;1817.60
70593;DHT22;58294;42.988;20.338;2023-05-07T03:03:44;230.40;1792.00
70593;DHT22;58294;42.988;20.338;2023-05-07T03:06:10;230.40;1792.00
70593;DHT22;58294;42.988;20.338;2023-05-07T03:08:36;205.70;1792.00
70593;DHT22;58294;42.988;20.338;2023-05-07T03:11:02;205.70;1792.00
70593;DHT22;58294;42.988;20.338;2023-05-07T03:13:28;205.70;1817.60
70593;DHT22;58294;42.988;20.338;2023-05-07T03:15:54;205.70;1792.00
70593;DHT22;58294;42.988;20.338;2023-05-07T03:18:19;205.70;1792.00
70593;DHT22;58294;42.988;20.338;2023-05-07T03:20:46;205.60;1817.60
70593;DHT22;58294;42.988;20.338;2023-05-07T03:23:11;205.60;1817.60
70593;DHT22;58294;42.988;20.338;2023-05-07T03:25:37;205.60;1817.60
70593;DHT22;58294;42.988;20.338;2023-05-07T03:28:03;205.60;1817.60
70593;DHT22;58294;42.988;20.338;2023-05-07T03:30:29;205.60;1843.20
70593;DHT22;58294;42.988;20.338;2023-05-07T03:32:55;205.60;1817.60
70593;DHT22;58294;42.988;20.338;2023-05-07T03:35:20;205.60;1843.20
70593;DHT22;58294;42.988;20.338;2023-05-07T03:37:46;205.60;1843.20
70593;DHT22;58294;42.988;20.338;2023-05-07T03:40:12;205.60;1843.20
70593;DHT22;58294;42.988;20.338;2023-05-07T03:42:38;205.60;1817.60
70593;DHT22;58294;42.988;20.338;2023-05-07T03:45:04;205.60;1868.80
70593;DHT22;58294;42.988;20.338;2023-05-07T03:47:30;205.60;1868.80
70593;DHT22;58294;42.988;20.338;2023-05-07T03:49:56;205.60;1894.40
70593;DHT22;58294;42.988;20.338;2023-05-07T03:52:22;205.60;1894.40
70593;DHT22;58294;42.988;20.338;2023-05-07T03:54:54;205.70;1894.40
70593;DHT22;58294;42.988;20.338;2023-05-07T03:57:20;205.70;1843.20
70593;DHT22;58294;42.988;20.338;2023-05-07T03:59:46;205.70;1868.80
70593;DHT22;58294;42.988;20.338;2023-05-07T04:02:12;205.70;1868.80
70593;DHT22;58294;42.988;20.338;2023-05-07T04:04:37;205.70;1843.20
70593;DHT22;58294;42.988;20.338;2023-05-07T04:07:03;205.70;1868.80
70593;DHT22;58294;42.988;20.338;2023-05-07T04:09:29;205.70;1817.60
70593;DHT22;58294;42.988;20.338;2023-05-07T04:11:55;205.70;1843.20
70593;DHT22;58294;42.988;20.338;2023-05-07T04:14:21;205.70;1894.40
70593;DHT22;58294;42.988;20.338;2023-05-07T04:16:47;205.70;1868.80
70593;DHT22;58294;42.988;20.338;2023-05-07T04:19:13;205.70;1894.40
70593;DHT22;58294;42.988;20.338;2023-05-07T04:21:38;205.70;1868.80
70593;DHT22;58294;42.988;20.338;2023-05-07T04:24:05;205.70;1894.40
70593;DHT22;58294;42.988;20.338;2023-05-07T04:26:31;230.40;1868.80
70593;DHT22;58294;42.988;20.338;2023-05-07T04:28:57;230.40;1868.80
70593;DHT22;58294;42.988;20.338;2023-05-07T04:31:24;230.40;1894.40
70593;DHT22;58294;42.988;20.338;2023-05-07T04:33:50;230.40;1894.40
70593;DHT22;58294;42.988;20.338;2023-05-07T04:36:17;230.40;1894.40
70593;DHT22;58294;42.988;20.338;2023-05-07T04:38:43;230.50;1894.40
70593;DHT22;58294;42.988;20.338;2023-05-07T04:41:09;230.50;1894.40
70593;DHT22;58294;42.988;20.338;2023-05-07T04:43:35;230.50;1920.00
70593;DHT22;58294;42.988;20.338;2023-05-07T04:46:01;230.60;1894.40
70593;DHT22;58294;42.988;20.338;2023-05-07T04:48:27;230.60;1920.00
70593;DHT22;58294;42.988;20.338;2023-05-07T04:50:54;230.70;1945.60
70593;DHT22;58294;42.988;20.338;2023-05-07T04:53:20;230.70;1945.60
70593;DHT22;58294;42.988;20.338;2023-05-07T04:55:46;230.80;1945.60
70593;DHT22;58294;42.988;20.338;2023-05-07T04:58:12;230.80;1920.00
70593;DHT22;58294;42.988;20.338;2023-05-07T05:00:38;230.90;1971.20
70593;DHT22;58294;42.988;20.338;2023-05-07T05:03:06;231.00;1971.20
70593;DHT22;58294;42.988;20.338;2023-05-07T05:05:32;231.10;1971.20
70593;DHT22;58294;42.988;20.338;2023-05-07T05:07:58;231.20;1971.20
70593;DHT22;58294;42.988;20.338;2023-05-07T05:10:24;231.30;1971.20
70593;DHT22;58294;42.988;20.338;2023-05-07T05:12:50;256.00;1971.20
70593;DHT22;58294;42.988;20.338;2023-05-07T05:15:16;256.10;1996.80
70593;DHT22;58294;42.988;20.338;2023-05-07T05:17:42;256.30;1971.20
70593;DHT22;58294;42.988;20.338;2023-05-07T05:20:08;256.30;1971.20
70593;DHT22;58294;42.988;20.338;2023-05-07T05:22:36;256.40;1945.60
70593;DHT22;58294;42.988;20.338;2023-05-07T05:25:02;256.50;1920.00
70593;DHT22;58294;42.988;20.338;2023-05-07T05:27:28;256.50;1945.60
70593;DHT22;58294;42.988;20.338;2023-05-07T05:29:54;256.60;1971.20
70593;DHT22;58294;42.988;20.338;2023-05-07T05:32:20;256.70;1971.20
70593;DHT22;58294;42.988;20.338;2023-05-07T05:34:46;256.80;1945.60
70593;DHT22;58294;42.988;20.338;2023-05-07T05:37:11;281.60;1971.20
70593;DHT22;58294;42.988;20.338;2023-05-07T05:39:37;281.60;1971.20
70593;DHT22;58294;42.988;20.338;2023-05-07T05:42:03;281.70;1945.60
70593;DHT22;58294;42.988;20.338;2023-05-07T05:44:29;281.80;1971.20
70593;DHT22;58294;42.988;20.338;2023-05-07T05:46:55;281.90;1996.80
70593;DHT22;58294;42.988;20.338;2023-05-07T05:49:23;282.00;1971.20
70593;DHT22;58294;42.988;20.338;2023-05-07T05:51:48;282.20;1996.80
70593;DHT22;58294;42.988;20.338;2023-05-07T05:54:14;282.30;1971.20
70593;DHT22;58294;42.988;20.338;2023-05-07T05:56:41;282.40;1945.60
70593;DHT22;58294;42.988;20.338;2023-05-07T05:59:07;282.50;1971.20
70593;DHT22;58294;42.988;20.338;2023-05-07T06:01:33;307.20;1971.20
70593;DHT22;58294;42.988;20.338;2023-05-07T06:03:58;307.40;1996.80
70593;DHT22;58294;42.988;20.338;2023-05-07T06:06:24;307.50;1971.20
70593;DHT22;58294;42.988;20.338;2023-05-07T06:08:51;307.60;1971.20
70593;DHT22;58294;42.988;20.338;2023-05-07T06:11:16;307.70;1971.20
70593;DHT22;58294;42.988;20.338;2023-05-07T06:13:42;307.90;1920.00
70593;DHT22;58294;42.988;20.338;2023-05-07T06:16:08;307.90;1945.60
70593;DHT22;58294;42.988;20.338;2023-05-07T06:18:34;308.00;1945.60
70593;DHT22;58294;42.988;20.338;2023-05-07T06:21:01;308.10;1971.20
70593;DHT22;58294;42.988;20.338;2023-05-07T06:23:27;332.80;1996.80
70593;DHT22;58294;42.988;20.338;2023-05-07T06:25:53;332.90;2022.40
70593;DHT22;58294;42.988;20.338;2023-05-07T06:28:19;333.00;1971.20
70593;DHT22;58294;42.988;20.338;2023-05-07T06:30:45;333.10;1945.60
70593;DHT22;58294;42.988;20.338;2023-05-07T06:33:10;333.30;1945.60
70593;DHT22;58294;42.988;20.338;2023-05-07T06:35:36;333.40;1996.80
70593;DHT22;58294;42.988;20.338;2023-05-07T06:38:02;333.50;2022.40
70593;DHT22;58294;42.988;20.338;2023-05-07T06:40:28;333.70;2022.40
70593;DHT22;58294;42.988;20.338;2023-05-07T06:42:55;358.50;1971.20
70593;DHT22;58294;42.988;20.338;2023-05-07T06:45:21;358.60;1971.20
70593;DHT22;58294;42.988;20.338;2023-05-07T06:47:47;358.80;1945.60
70593;DHT22;58294;42.988;20.338;2023-05-07T06:50:12;358.80;1920.00
70593;DHT22;58294;42.988;20.338;2023-05-07T06:52:38;359.00;1920.00
70593;DHT22;58294;42.988;20.338;2023-05-07T06:55:05;359.10;1843.20
70593;DHT22;58294;42.988;20.338;2023-05-07T06:57:31;359.10;1868.80
70593;DHT22;58294;42.988;20.338;2023-05-07T06:59:56;359.20;1868.80
70593;DHT22;58294;42.988;20.338;2023-05-07T07:02:22;359.30;1843.20
70593;DHT22;58294;42.988;20.338;2023-05-07T07:04:48;384.10;1843.20
70593;DHT22;58294;42.988;20.338;2023-05-07T07:07:14;384.20;1843.20
70593;DHT22;58294;42.988;20.338;2023-05-07T07:09:39;384.40;1843.20
70593;DHT22;58294;42.988;20.338;2023-05-07T07:12:05;384.50;1843.20
70593;DHT22;58294;42.988;20.338;2023-05-07T07:14:31;384.70;1843.20
70593;DHT22;58294;42.988;20.338;2023-05-07T07:16:57;409.60;1792.00
70593;DHT22;58294;42.988;20.338;2023-05-07T07:19:22;409.70;1817.60
70593;DHT22;58294;42.988;20.338;2023-05-07T07:21:48;409.80;1792.00
70593;DHT22;58294;42.988;20.338;2023-05-07T07:24:14;409.90;1792.00
70593;DHT22;58294;42.988;20.338;2023-05-07T07:26:45;410.10;1792.00
70593;DHT22;58294;42.988;20.338;2023-05-07T07:29:10;410.40;1715.20
70593;DHT22;58294;42.988;20.338;2023-05-07T07:31:36;410.50;1689.60
70593;DHT22;58294;42.988;20.338;2023-05-07T07:34:02;435.30;1689.60
70593;DHT22;58294;42.988;20.338;2023-05-07T07:36:28;435.40;1740.80
70593;DHT22;58294;42.988;20.338;2023-05-07T07:38:54;435.70;1664.00
70593;DHT22;58294;42.988;20.338;2023-05-07T07:41:20;435.80;1689.60
70593;DHT22;58294;42.988;20.338;2023-05-07T07:43:45;436.00;1689.60
70593;DHT22;58294;42.988;20.338;2023-05-07T07:46:12;436.10;1689.60
70593;DHT22;58294;42.988;20.338;2023-05-07T07:48:38;460.80;1920.00
70593;DHT22;58294;42.988;20.338;2023-05-07T07:51:04;461.00;1689.60
70593;DHT22;58294;42.988;20.338;2023-05-07T07:53:30;461.20;1740.80
70593;DHT22;58294;42.988;20.338;2023-05-07T07:55:56;461.30;1740.80
70593;DHT22;58294;42.988;20.338;2023-05-07T07:58:21;461.50;1766.40
70593;DHT22;58294;42.988;20.338;2023-05-07T08:00:48;461.70;1715.20
70593;DHT22;58294;42.988;20.338;2023-05-07T08:03:14;486.40;1715.20
70593;DHT22;58294;42.988;20.338;2023-05-07T08:05:42;486.70;1740.80
70593;DHT22;58294;42.988;20.338;2023-05-07T08:08:08;486.80;1664.00
70593;DHT22;58294;42.988;20.338;2023-05-07T08:10:34;486.90;1638.40
70593;DHT22;58294;42.988;20.338;2023-05-07T08:13:00;487.20;1612.80
70593;DHT22;58294;42.988;20.338;2023-05-07T08:15:27;487.30;1612.80
70593;DHT22;58294;42.988;20.338;2023-05-07T08:17:53;512.00;1664.00
70593;DHT22;58294;42.988;20.338;2023-05-07T08:20:19;512.30;1561.60
70593;DHT22;58294;42.988;20.338;2023-05-07T08:22:44;512.50;1612.80
70593;DHT22;58294;42.988;20.338;2023-05-07T08:25:10;512.70;1638.40
70593;DHT22;58294;42.988;20.338;2023-05-07T08:27:36;512.90;1638.40
70593;DHT22;58294;42.988;20.338;2023-05-07T08:30:03;537.90;1612.80
70593;DHT22;58294;42.988;20.338;2023-05-07T08:32:28;538.00;1561.60
70593;DHT22;58294;42.988;20.338;2023-05-07T08:34:54;538.20;1536.00
70593;DHT22;58294;42.988;20.338;2023-05-07T08:37:20;538.40;1612.80
70593;DHT22;58294;42.988;20.338;2023-05-07T08:39:46;563.20;1587.20
70593;DHT22;58294;42.988;20.338;2023-05-07T08:42:12;563.30;1484.80
70593;DHT22;58294;42.988;20.338;2023-05-07T08:44:45;563.60;1510.40
70593;DHT22;58294;42.988;20.338;2023-05-07T08:47:14;563.90;1433.60
70593;DHT22;58294;42.988;20.338;2023-05-07T08:49:39;564.00;1408.00
70593;DHT22;58294;42.988;20.338;2023-05-07T08:52:06;564.10;1331.20
70593;DHT22;58294;42.988;20.338;2023-05-07T08:54:32;564.10;1356.80
70593;DHT22;58294;42.988;20.338;2023-05-07T08:56:59;588.90;1356.80
70593;DHT22;58294;42.988;20.338;2023-05-07T08:59:25;589.00;1305.60
70593;DHT22;58294;42.988;20.338;2023-05-07T09:01:51;589.00;1228.80
70593;DHT22;58294;42.988;20.338;2023-05-07T09:04:17;589.00;1203.20
70593;DHT22;58294;42.988;20.338;2023-05-07T09:06:42;589.10;1254.40
70593;DHT22;58294;42.988;20.338;2023-05-07T09:09:08;589.10;1254.40
70593;DHT22;58294;42.988;20.338;2023-05-07T09:11:34;589.20;1100.80
70593;DHT22;58294;42.988;20.338;2023-05-07T09:14:00;589.20;1075.20
70593;DHT22;58294;42.988;20.338;2023-05-07T09:16:30;589.30;1280.00
70593;DHT22;58294;42.988;20.338;2023-05-07T09:18:58;589.60;1254.40
70593;DHT22;58294;42.988;20.338;2023-05-07T09:21:25;614.40;1280.00
70593;DHT22;58294;42.988;20.338;2023-05-07T09:23:52;614.60;1075.20
70593;DHT22;58294;42.988;20.338;2023-05-07T09:26:20;614.60;1100.80
70593;DHT22;58294;42.988;20.338;2023-05-07T09:28:46;614.70;1100.80
70593;DHT22;58294;42.988;20.338;2023-05-07T09:31:12;614.70;947.20
70593;DHT22;58294;42.988;20.338;2023-05-07T09:33:39;614.80;972.80
70593;DHT22;58294;42.988;20.338;2023-05-07T09:36:06;614.90;947.20
70593;DHT22;58294;42.988;20.338;2023-05-07T09:38:33;615.00;1024.00
70593;DHT22;58294;42.988;20.338;2023-05-07T09:41:15;615.10;1049.60
70593;DHT22;58294;42.988;20.338;2023-05-07T09:43:41;615.30;1100.80
70593;DHT22;58294;42.988;20.338;2023-05-07T09:46:13;640.00;947.20
70593;DHT22;58294;42.988;20.338;2023-05-07T09:48:42;640.20;896.00
70593;DHT22;58294;42.988;20.338;2023-05-07T09:53:46;640.50;1024.00
70593;DHT22;58294;42.988;20.338;2023-05-07T09:56:14;640.70;921.60
70593;DHT22;58294;42.988;20.338;2023-05-07T09:58:41;640.70;870.40
70593;DHT22;58294;42.988;20.338;2023-05-07T10:01:07;640.50;819.20
70593;DHT22;58294;42.988;20.338;2023-05-07T10:03:33;640.30;896.00
70593;DHT22;58294;42.988;20.338;2023-05-07T10:06:02;640.30;921.60
70593;DHT22;58294;42.988;20.338;2023-05-07T10:08:30;640.30;972.80
70593;DHT22;58294;42.988;20.338;2023-05-07T10:10:56;640.20;947.20
70593;DHT22;58294;42.988;20.338;2023-05-07T10:13:22;640.40;972.80
70593;DHT22;58294;42.988;20.338;2023-05-07T10:15:49;640.70;998.40
70593;DHT22;58294;42.988;20.338;2023-05-07T10:18:16;640.90;947.20
70593;DHT22;58294;42.988;20.338;2023-05-07T10:20:45;665.60;972.80
70593;DHT22;58294;42.988;20.338;2023-05-07T10:23:14;665.70;947.20
70593;DHT22;58294;42.988;20.338;2023-05-07T10:25:45;665.80;972.80
70593;DHT22;58294;42.988;20.338;2023-05-07T10:28:12;666.00;998.40
70593;DHT22;58294;42.988;20.338;2023-05-07T10:30:40;666.00;921.60
70593;DHT22;58294;42.988;20.338;2023-05-07T10:33:11;665.80;921.60
70593;DHT22;58294;42.988;20.338;2023-05-07T10:35:41;665.70;844.80
70593;DHT22;58294;42.988;20.338;2023-05-07T10:38:07;640.90;896.00
70593;DHT22;58294;42.988;20.338;2023-05-07T10:40:33;640.80;896.00
70593;DHT22;58294;42.988;20.338;2023-05-07T10:43:01;640.70;921.60
70593;DHT22;58294;42.988;20.338;2023-05-07T10:45:28;640.70;921.60
70593;DHT22;58294;42.988;20.338;2023-05-07T10:48:14;665.90;1228.80
70593;DHT22;58294;42.988;20.338;2023-05-07T10:50:41;692.00;1075.20
70593;DHT22;58294;42.988;20.338;2023-05-07T10:55:43;717.70;921.60
70593;DHT22;58294;42.988;20.338;2023-05-07T10:58:28;717.50;896.00
70593;DHT22;58294;42.988;20.338;2023-05-07T11:00:58;717.00;870.40
70593;DHT22;58294;42.988;20.338;2023-05-07T11:03:25;692.00;793.60
70593;DHT22;58294;42.988;20.338;2023-05-07T11:06:17;691.60;819.20
70593;DHT22;58294;42.988;20.338;2023-05-07T11:11:17;666.30;870.40
70593;DHT22;58294;42.988;20.338;2023-05-07T11:13:45;666.10;870.40
70593;DHT22;58294;42.988;20.338;2023-05-07T11:16:20;666.10;921.60
70593;DHT22;58294;42.988;20.338;2023-05-07T11:18:48;691.90;1228.80
70593;DHT22;58294;42.988;20.338;2023-05-07T11:21:38;742.50;1177.60
70593;DHT22;58294;42.988;20.338;2023-05-07T11:24:05;768.50;947.20
70593;DHT22;58294;42.988;20.338;2023-05-07T11:31:41;845.70;768.00
70593;DHT22;58294;42.988;20.338;2023-05-07T11:34:07;870.40;640.00
70593;DHT22;58294;42.988;20.338;2023-05-07T11:36:33;844.80;614.40
70593;DHT22;58294;42.988;20.338;2023-05-07T11:38:59;819.30;640.00
70593;DHT22;58294;42.988;20.338;2023-05-07T11:41:37;793.80;665.60
70593;DHT22;58294;42.988;20.338;2023-05-07T11:44:03;768.40;640.00
70593;DHT22;58294;42.988;20.338;2023-05-07T11:46:29;743.10;716.80
70593;DHT22;58294;42.988;20.338;2023-05-07T11:48:56;742.60;716.80
70593;DHT22;58294;42.988;20.338;2023-05-07T11:51:24;717.60;691.20
70593;DHT22;58294;42.988;20.338;2023-05-07T11:56:18;794.50;1126.40
70593;DHT22;58294;42.988;20.338;2023-05-07T12:03:41;870.80;665.60
70593;DHT22;58294;42.988;20.338;2023-05-07T12:08:39;845.40;665.60
70593;DHT22;58294;42.988;20.338;2023-05-07T12:11:13;819.90;614.40
70593;DHT22;58294;42.988;20.338;2023-05-07T12:13:39;794.50;640.00
70593;DHT22;58294;42.988;20.338;2023-05-07T12:16:06;793.80;716.80
70593;DHT22;58294;42.988;20.338;2023-05-07T12:18:33;768.50;640.00
70593;DHT22;58294;42.988;20.338;2023-05-07T12:21:00;743.30;665.60
70593;DHT22;58294;42.988;20.338;2023-05-07T12:23:26;743.00;691.20
70593;DHT22;58294;42.988;20.338;2023-05-07T12:25:51;743.00;793.60
70593;DHT22;58294;42.988;20.338;2023-05-07T12:28:18;742.90;716.80
70593;DHT22;58294;42.988;20.338;2023-05-07T12:30:46;742.60;716.80
70593;DHT22;58294;42.988;20.338;2023-05-07T12:33:14;742.40;768.00
70593;DHT22;58294;42.988;20.338;2023-05-07T12:35:42;717.50;716.80
70593;DHT22;58294;42.988;20.338;2023-05-07T12:38:09;717.10;716.80
70593;DHT22;58294;42.988;20.338;2023-05-07T12:40:45;716.90;716.80
70593;DHT22;58294;42.988;20.338;2023-05-07T12:43:29;691.90;716.80
70593;DHT22;58294;42.988;20.338;2023-05-07T12:45:56;691.60;742.40
70593;DHT22;58294;42.988;20.338;2023-05-07T12:48:23;691.40;742.40
70593;DHT22;58294;42.988;20.338;2023-05-07T12:50:52;716.80;1100.80
70593;DHT22;58294;42.988;20.338;2023-05-07T12:53:22;742.60;819.20
70593;DHT22;58294;42.988;20.338;2023-05-07T13:00:48;819.70;793.60
70593;DHT22;58294;42.988;20.338;2023-05-07T13:03:23;819.40;614.40
70593;DHT22;58294;42.988;20.338;2023-05-07T13:05:50;794.10;614.40
70593;DHT22;58294;42.988;20.338;2023-05-07T13:10:51;743.30;691.20
70593;DHT22;58294;42.988;20.338;2023-05-07T13:13:17;742.60;691.20
70593;DHT22;58294;42.988;20.338;2023-05-07T13:15:43;717.50;691.20
70593;DHT22;58294;42.988;20.338;2023-05-07T13:18:09;717.00;716.80
70593;DHT22;58294;42.988;20.338;2023-05-07T13:20:36;716.80;742.40
70593;DHT22;58294;42.988;20.338;2023-05-07T13:23:02;692.00;716.80
70593;DHT22;58294;42.988;20.338;2023-05-07T13:25:30;691.90;716.80
70593;DHT22;58294;42.988;20.338;2023-05-07T13:27:59;691.80;742.40
70593;DHT22;58294;42.988;20.338;2023-05-07T13:30:25;691.50;742.40
70593;DHT22;58294;42.988;20.338;2023-05-07T13:32:54;691.40;742.40
70593;DHT22;58294;42.988;20.338;2023-05-07T13:35:20;691.20;768.00
70593;DHT22;58294;42.988;20.338;2023-05-07T13:37:46;666.40;768.00
70593;DHT22;58294;42.988;20.338;2023-05-07T13:40:13;666.10;768.00
70593;DHT22;58294;42.988;20.338;2023-05-07T13:42:39;665.90;768.00
70593;DHT22;58294;42.988;20.338;2023-05-07T13:45:05;665.90;793.60
70593;DHT22;58294;42.988;20.338;2023-05-07T13:47:31;666.00;768.00
70593;DHT22;58294;42.988;20.338;2023-05-07T13:49:57;665.90;793.60
70593;DHT22;58294;42.988;20.338;2023-05-07T13:52:23;665.80;793.60
70593;DHT22;58294;42.988;20.338;2023-05-07T13:54:48;665.80;793.60
70593;DHT22;58294;42.988;20.338;2023-05-07T13:57:14;665.90;793.60
70593;DHT22;58294;42.988;20.338;2023-05-07T13:59:41;665.90;793.60
70593;DHT22;58294;42.988;20.338;2023-05-07T14:02:06;665.80;793.60
70593;DHT22;58294;42.988;20.338;2023-05-07T14:04:32;665.60;793.60
70593;DHT22;58294;42.988;20.338;2023-05-07T14:06:58;640.70;768.00
70593;DHT22;58294;42.988;20.338;2023-05-07T14:09:24;640.40;793.60
70593;DHT22;58294;42.988;20.338;2023-05-07T14:11:49;640.30;793.60
70593;DHT22;58294;42.988;20.338;2023-05-07T14:14:17;640.20;793.60
70593;DHT22;58294;42.988;20.338;2023-05-07T14:16:44;640.10;793.60
70593;DHT22;58294;42.988;20.338;2023-05-07T14:19:11;640.00;793.60
70593;DHT22;58294;42.988;20.338;2023-05-07T14:21:37;615.30;819.20
70593;DHT22;58294;42.988;20.338;2023-05-07T14:24:02;615.30;819.20
70593;DHT22;58294;42.988;20.338;2023-05-07T14:26:28;615.20;819.20
70593;DHT22;58294;42.988;20.338;2023-05-07T14:28:55;615.10;819.20
70593;DHT22;58294;42.988;20.338;2023-05-07T14:31:22;615.00;870.40
70593;DHT22;58294;42.988;20.338;2023-05-07T14:33:48;614.90;844.80
70593;DHT22;58294;42.988;20.338;2023-05-07T14:36:19;614.80;870.40
70593;DHT22;58294;42.988;20.338;2023-05-07T14:38:46;614.60;844.80
70593;DHT22;58294;42.988;20.338;2023-05-07T14:41:12;614.60;844.80
70593;DHT22;58294;42.988;20.338;2023-05-07T14:43:38;614.70;870.40
70593;DHT22;58294;42.988;20.338;2023-05-07T14:46:04;614.80;870.40
70593;DHT22;58294;42.988;20.338;2023-05-07T14:48:30;614.80;844.80
70593;DHT22;58294;42.988;20.338;2023-05-07T14:50:56;614.80;844.80
70593;DHT22;58294;42.988;20.338;2023-05-07T14:53:22;614.80;870.40
70593;DHT22;58294;42.988;20.338;2023-05-07T14:55:48;614.80;870.40
70593;DHT22;58294;42.988;20.338;2023-05-07T14:58:14;614.70;870.40
70593;DHT22;58294;42.988;20.338;2023-05-07T15:00:40;614.70;844.80
70593;DHT22;58294;42.988;20.338;2023-05-07T15:03:09;614.60;870.40
70593;DHT22;58294;42.988;20.338;2023-05-07T15:05:37;614.60;870.40